Kinrooi, Belgium
Current Conditions -  °F | °C
As of 10:12 PM on Sunday 23 Nov 2014 (Local Time) from EBBL Reporting Station
Broken Clouds Broken Clouds  
Wind Chill: 54°   Ceiling: 2800
Heat Index: 54°   Visibility: NA
Dew Point: 50°   Wind: 6mph
Humidity: 88%   Direction: 210°SSW
Pressure: 29.97"   Gusts: NA
Location:  51.15°N, 5.74°E
Report Text: EBBL 232112Z AUTO 21005KT //// SCT024/// BKN028/// 12/10 Q1015 WHT
Loading
Personal Weather Stations






























Interactive Weather Map New forecast layout! Learn more

10-Day Weather Forecast

Advertisements
Track Severe Weather on mobile